sensor_id;sensor_type;location;lat;lon;timestamp;P1;durP1;ratioP1;P2;durP2;ratioP2
18290;SDS011;9271;48.590;8.866;2022-08-11T00:00:59;1.90;;;1.80;;
18290;SDS011;9271;48.590;8.866;2022-08-11T00:03:33;4.17;;;2.00;;
18290;SDS011;9271;48.590;8.866;2022-08-11T00:06:00;2.23;;;1.90;;
18290;SDS011;9271;48.590;8.866;2022-08-11T00:08:29;3.17;;;2.20;;
18290;SDS011;9271;48.590;8.866;2022-08-11T00:10:58;2.17;;;1.80;;
18290;SDS011;9271;48.590;8.866;2022-08-11T00:13:33;2.00;;;1.80;;
18290;SDS011;9271;48.590;8.866;2022-08-11T00:16:02;2.10;;;1.73;;
18290;SDS011;9271;48.590;8.866;2022-08-11T00:18:40;2.27;;;1.97;;
18290;SDS011;9271;48.590;8.866;2022-08-11T00:21:08;2.77;;;2.00;;
18290;SDS011;9271;48.590;8.866;2022-08-11T00:23:40;2.43;;;2.20;;
18290;SDS011;9271;48.590;8.866;2022-08-11T00:26:09;2.63;;;2.20;;
18290;SDS011;9271;48.590;8.866;2022-08-11T00:28:37;2.53;;;2.20;;
18290;SDS011;9271;48.590;8.866;2022-08-11T00:31:04;4.10;;;2.40;;
18290;SDS011;9271;48.590;8.866;2022-08-11T00:33:33;4.53;;;2.73;;
18290;SDS011;9271;48.590;8.866;2022-08-11T00:36:05;2.90;;;2.00;;
18290;SDS011;9271;48.590;8.866;2022-08-11T00:38:35;2.53;;;2.27;;
18290;SDS011;9271;48.590;8.866;2022-08-11T00:41:15;2.10;;;2.00;;
18290;SDS011;9271;48.590;8.866;2022-08-11T00:43:58;2.80;;;2.00;;
18290;SDS011;9271;48.590;8.866;2022-08-11T00:46:49;4.83;;;2.10;;
18290;SDS011;9271;48.590;8.866;2022-08-11T00:49:29;3.17;;;2.00;;
18290;SDS011;9271;48.590;8.866;2022-08-11T00:52:09;2.33;;;2.10;;
18290;SDS011;9271;48.590;8.866;2022-08-11T00:54:57;3.03;;;1.90;;
18290;SDS011;9271;48.590;8.866;2022-08-11T00:57:41;3.73;;;1.80;;
18290;SDS011;9271;48.590;8.866;2022-08-11T01:00:33;2.03;;;1.80;;
18290;SDS011;9271;48.590;8.866;2022-08-11T01:03:26;1.83;;;1.70;;
18290;SDS011;9271;48.590;8.866;2022-08-11T01:06:05;3.17;;;2.13;;
18290;SDS011;9271;48.590;8.866;2022-08-11T01:09:20;2.37;;;1.70;;
18290;SDS011;9271;48.590;8.866;2022-08-11T01:12:19;3.53;;;2.03;;
18290;SDS011;9271;48.590;8.866;2022-08-11T01:27:23;3.27;;;1.93;;
18290;SDS011;9271;48.590;8.866;2022-08-11T01:30:30;3.33;;;2.20;;
18290;SDS011;9271;48.590;8.866;2022-08-11T01:33:30;2.13;;;1.70;;
18290;SDS011;9271;48.590;8.866;2022-08-11T01:36:38;1.90;;;1.80;;
18290;SDS011;9271;48.590;8.866;2022-08-11T01:39:34;2.40;;;1.90;;
18290;SDS011;9271;48.590;8.866;2022-08-11T01:42:37;3.33;;;2.00;;
18290;SDS011;9271;48.590;8.866;2022-08-11T01:45:45;3.53;;;1.77;;
18290;SDS011;9271;48.590;8.866;2022-08-11T01:48:19;2.00;;;1.90;;
18290;SDS011;9271;48.590;8.866;2022-08-11T01:51:02;2.00;;;1.90;;
18290;SDS011;9271;48.590;8.866;2022-08-11T01:53:44;3.23;;;1.70;;
18290;SDS011;9271;48.590;8.866;2022-08-11T01:56:22;1.83;;;1.73;;
18290;SDS011;9271;48.590;8.866;2022-08-11T01:58:59;2.70;;;1.90;;
18290;SDS011;9271;48.590;8.866;2022-08-11T02:01:37;4.17;;;1.97;;
18290;SDS011;9271;48.590;8.866;2022-08-11T02:04:17;1.80;;;1.70;;
18290;SDS011;9271;48.590;8.866;2022-08-11T02:06:52;2.10;;;1.90;;
18290;SDS011;9271;48.590;8.866;2022-08-11T02:09:39;1.90;;;1.80;;
18290;SDS011;9271;48.590;8.866;2022-08-11T02:12:19;3.20;;;2.27;;
18290;SDS011;9271;48.590;8.866;2022-08-11T02:14:56;3.90;;;2.00;;
18290;SDS011;9271;48.590;8.866;2022-08-11T02:17:36;2.13;;;1.90;;
18290;SDS011;9271;48.590;8.866;2022-08-11T02:20:16;4.23;;;1.83;;
18290;SDS011;9271;48.590;8.866;2022-08-11T02:23:08;1.97;;;1.87;;
18290;SDS011;9271;48.590;8.866;2022-08-11T02:26:08;2.00;;;1.90;;
18290;SDS011;9271;48.590;8.866;2022-08-11T02:28:54;3.07;;;1.90;;
18290;SDS011;9271;48.590;8.866;2022-08-11T02:31:37;2.10;;;1.77;;
18290;SDS011;9271;48.590;8.866;2022-08-11T02:34:33;2.90;;;1.87;;
18290;SDS011;9271;48.590;8.866;2022-08-11T02:37:12;2.40;;;1.97;;
18290;SDS011;9271;48.590;8.866;2022-08-11T02:39:45;4.73;;;2.10;;
18290;SDS011;9271;48.590;8.866;2022-08-11T02:42:22;1.80;;;1.70;;
18290;SDS011;9271;48.590;8.866;2022-08-11T02:44:59;4.50;;;2.30;;
18290;SDS011;9271;48.590;8.866;2022-08-11T02:47:38;2.93;;;2.00;;
18290;SDS011;9271;48.590;8.866;2022-08-11T02:50:30;2.13;;;1.90;;
18290;SDS011;9271;48.590;8.866;2022-08-11T02:53:05;2.77;;;2.00;;
18290;SDS011;9271;48.590;8.866;2022-08-11T02:55:37;3.90;;;2.17;;
18290;SDS011;9271;48.590;8.866;2022-08-11T02:58:20;4.00;;;2.10;;
18290;SDS011;9271;48.590;8.866;2022-08-11T03:01:02;2.20;;;2.00;;
18290;SDS011;9271;48.590;8.866;2022-08-11T03:03:43;4.80;;;2.10;;
18290;SDS011;9271;48.590;8.866;2022-08-11T03:06:18;2.10;;;1.90;;
18290;SDS011;9271;48.590;8.866;2022-08-11T03:08:57;3.20;;;2.10;;
18290;SDS011;9271;48.590;8.866;2022-08-11T03:11:37;2.10;;;1.90;;
18290;SDS011;9271;48.590;8.866;2022-08-11T03:14:36;3.10;;;2.13;;
18290;SDS011;9271;48.590;8.866;2022-08-11T03:17:35;2.13;;;2.00;;
18290;SDS011;9271;48.590;8.866;2022-08-11T03:20:14;2.27;;;1.80;;
18290;SDS011;9271;48.590;8.866;2022-08-11T03:22:50;2.30;;;2.10;;
18290;SDS011;9271;48.590;8.866;2022-08-11T03:25:28;2.67;;;2.00;;
18290;SDS011;9271;48.590;8.866;2022-08-11T03:28:00;2.10;;;2.00;;
18290;SDS011;9271;48.590;8.866;2022-08-11T03:30:41;6.43;;;2.20;;
18290;SDS011;9271;48.590;8.866;2022-08-11T03:33:17;2.90;;;2.47;;
18290;SDS011;9271;48.590;8.866;2022-08-11T03:36:19;6.00;;;2.40;;
18290;SDS011;9271;48.590;8.866;2022-08-11T03:39:09;2.63;;;2.20;;
18290;SDS011;9271;48.590;8.866;2022-08-11T03:41:47;2.00;;;1.90;;
18290;SDS011;9271;48.590;8.866;2022-08-11T03:44:27;3.07;;;2.33;;
18290;SDS011;9271;48.590;8.866;2022-08-11T03:50:13;5.63;;;2.30;;
18290;SDS011;9271;48.590;8.866;2022-08-11T03:52:50;3.13;;;2.50;;
18290;SDS011;9271;48.590;8.866;2022-08-11T03:55:27;2.30;;;2.10;;
18290;SDS011;9271;48.590;8.866;2022-08-11T04:07:34;3.57;;;2.33;;
18290;SDS011;9271;48.590;8.866;2022-08-11T04:13:32;3.63;;;2.43;;
18290;SDS011;9271;48.590;8.866;2022-08-11T04:16:15;2.77;;;2.57;;
18290;SDS011;9271;48.590;8.866;2022-08-11T04:25:24;3.90;;;2.07;;
18290;SDS011;9271;48.590;8.866;2022-08-11T04:31:17;4.70;;;2.63;;
18290;SDS011;9271;48.590;8.866;2022-08-11T04:34:03;5.30;;;2.40;;
18290;SDS011;9271;48.590;8.866;2022-08-11T04:36:52;3.10;;;2.43;;
18290;SDS011;9271;48.590;8.866;2022-08-11T04:43:25;3.63;;;2.50;;
18290;SDS011;9271;48.590;8.866;2022-08-11T04:46:14;2.43;;;2.23;;
18290;SDS011;9271;48.590;8.866;2022-08-11T04:49:03;5.33;;;2.30;;
18290;SDS011;9271;48.590;8.866;2022-08-11T04:52:31;8.17;;;2.40;;
18290;SDS011;9271;48.590;8.866;2022-08-11T04:55:54;3.30;;;2.27;;
18290;SDS011;9271;48.590;8.866;2022-08-11T04:58:54;2.50;;;2.30;;
18290;SDS011;9271;48.590;8.866;2022-08-11T05:02:01;3.00;;;2.30;;
18290;SDS011;9271;48.590;8.866;2022-08-11T05:04:53;4.17;;;2.47;;
18290;SDS011;9271;48.590;8.866;2022-08-11T05:08:00;3.13;;;2.37;;
18290;SDS011;9271;48.590;8.866;2022-08-11T05:10:55;2.40;;;2.20;;
18290;SDS011;9271;48.590;8.866;2022-08-11T05:13:33;2.87;;;2.20;;
18290;SDS011;9271;48.590;8.866;2022-08-11T05:16:27;2.83;;;2.30;;
18290;SDS011;9271;48.590;8.866;2022-08-11T05:19:15;2.80;;;2.50;;
18290;SDS011;9271;48.590;8.866;2022-08-11T05:22:00;4.43;;;2.20;;
18290;SDS011;9271;48.590;8.866;2022-08-11T05:24:49;3.13;;;2.43;;
18290;SDS011;9271;48.590;8.866;2022-08-11T05:27:44;4.97;;;2.23;;
18290;SDS011;9271;48.590;8.866;2022-08-11T05:30:35;2.70;;;2.50;;
18290;SDS011;9271;48.590;8.866;2022-08-11T05:33:29;6.63;;;2.80;;
18290;SDS011;9271;48.590;8.866;2022-08-11T05:36:17;2.40;;;2.20;;
18290;SDS011;9271;48.590;8.866;2022-08-11T05:38:53;5.77;;;2.30;;
18290;SDS011;9271;48.590;8.866;2022-08-11T05:41:40;2.57;;;2.37;;
18290;SDS011;9271;48.590;8.866;2022-08-11T05:44:25;2.60;;;2.40;;
18290;SDS011;9271;48.590;8.866;2022-08-11T05:47:11;2.50;;;2.30;;
18290;SDS011;9271;48.590;8.866;2022-08-11T05:50:07;2.77;;;2.10;;
18290;SDS011;9271;48.590;8.866;2022-08-11T05:52:53;6.07;;;2.53;;
18290;SDS011;9271;48.590;8.866;2022-08-11T05:55:39;5.33;;;2.47;;
18290;SDS011;9271;48.590;8.866;2022-08-11T05:58:24;3.73;;;2.40;;
18290;SDS011;9271;48.590;8.866;2022-08-11T06:00:57;2.73;;;2.20;;
18290;SDS011;9271;48.590;8.866;2022-08-11T06:03:25;4.30;;;2.30;;
18290;SDS011;9271;48.590;8.866;2022-08-11T06:05:55;4.23;;;2.37;;
18290;SDS011;9271;48.590;8.866;2022-08-11T06:08:26;3.77;;;2.53;;
18290;SDS011;9271;48.590;8.866;2022-08-11T06:10:58;2.57;;;2.37;;
18290;SDS011;9271;48.590;8.866;2022-08-11T06:13:25;5.43;;;2.13;;
18290;SDS011;9271;48.590;8.866;2022-08-11T06:15:53;2.77;;;2.47;;
18290;SDS011;9271;48.590;8.866;2022-08-11T06:18:20;3.43;;;2.50;;
18290;SDS011;9271;48.590;8.866;2022-08-11T06:20:48;4.67;;;2.40;;
18290;SDS011;9271;48.590;8.866;2022-08-11T06:23:19;2.63;;;2.27;;
18290;SDS011;9271;48.590;8.866;2022-08-11T06:25:48;2.73;;;2.50;;
18290;SDS011;9271;48.590;8.866;2022-08-11T06:28:16;2.60;;;2.40;;
18290;SDS011;9271;48.590;8.866;2022-08-11T06:30:46;2.47;;;2.20;;
18290;SDS011;9271;48.590;8.866;2022-08-11T06:33:14;6.20;;;2.50;;
18290;SDS011;9271;48.590;8.866;2022-08-11T06:35:47;3.97;;;2.40;;
18290;SDS011;9271;48.590;8.866;2022-08-11T06:38:27;4.27;;;2.47;;
18290;SDS011;9271;48.590;8.866;2022-08-11T06:41:06;3.20;;;2.30;;
18290;SDS011;9271;48.590;8.866;2022-08-11T06:44:06;3.83;;;2.53;;
18290;SDS011;9271;48.590;8.866;2022-08-11T06:46:41;2.57;;;2.27;;
18290;SDS011;9271;48.590;8.866;2022-08-11T06:49:10;4.80;;;2.50;;
18290;SDS011;9271;48.590;8.866;2022-08-11T06:51:52;4.13;;;2.20;;
18290;SDS011;9271;48.590;8.866;2022-08-11T06:54:22;4.63;;;2.30;;
18290;SDS011;9271;48.590;8.866;2022-08-11T06:56:49;3.33;;;2.40;;
18290;SDS011;9271;48.590;8.866;2022-08-11T06:59:33;3.70;;;2.30;;
18290;SDS011;9271;48.590;8.866;2022-08-11T07:02:21;5.83;;;2.40;;
18290;SDS011;9271;48.590;8.866;2022-08-11T07:04:52;3.70;;;2.40;;
18290;SDS011;9271;48.590;8.866;2022-08-11T07:07:36;3.63;;;2.40;;
18290;SDS011;9271;48.590;8.866;2022-08-11T07:10:48;4.00;;;2.20;;
18290;SDS011;9271;48.590;8.866;2022-08-11T07:13:44;3.17;;;2.23;;
18290;SDS011;9271;48.590;8.866;2022-08-11T07:16:30;3.50;;;2.53;;
18290;SDS011;9271;48.590;8.866;2022-08-11T07:19:00;2.97;;;2.40;;
18290;SDS011;9271;48.590;8.866;2022-08-11T07:21:48;4.40;;;2.37;;
18290;SDS011;9271;48.590;8.866;2022-08-11T07:24:34;3.07;;;2.37;;
18290;SDS011;9271;48.590;8.866;2022-08-11T07:27:23;3.13;;;2.10;;
18290;SDS011;9271;48.590;8.866;2022-08-11T07:30:11;5.77;;;2.30;;
18290;SDS011;9271;48.590;8.866;2022-08-11T07:32:40;2.30;;;2.10;;
18290;SDS011;9271;48.590;8.866;2022-08-11T07:35:15;3.03;;;2.30;;
18290;SDS011;9271;48.590;8.866;2022-08-11T07:37:46;3.63;;;2.40;;
18290;SDS011;9271;48.590;8.866;2022-08-11T07:40:18;4.60;;;2.40;;
18290;SDS011;9271;48.590;8.866;2022-08-11T07:42:49;2.85;;;2.42;;
18290;SDS011;9271;48.590;8.866;2022-08-11T07:45:17;3.55;;;2.15;;
18290;SDS011;9271;48.590;8.866;2022-08-11T07:48:02;5.57;;;2.40;;
18290;SDS011;9271;48.590;8.866;2022-08-11T07:50:49;5.53;;;2.30;;
18290;SDS011;9271;48.590;8.866;2022-08-11T07:53:34;2.38;;;2.17;;
18290;SDS011;9271;48.590;8.866;2022-08-11T07:56:02;2.78;;;2.20;;
18290;SDS011;9271;48.590;8.866;2022-08-11T07:58:33;4.03;;;2.70;;
18290;SDS011;9271;48.590;8.866;2022-08-11T08:01:19;3.58;;;2.30;;
18290;SDS011;9271;48.590;8.866;2022-08-11T08:04:05;2.42;;;2.03;;
18290;SDS011;9271;48.590;8.866;2022-08-11T08:06:52;4.53;;;2.17;;
18290;SDS011;9271;48.590;8.866;2022-08-11T08:09:37;2.53;;;2.03;;
18290;SDS011;9271;48.590;8.866;2022-08-11T08:12:23;3.70;;;2.50;;
18290;SDS011;9271;48.590;8.866;2022-08-11T08:15:10;5.28;;;2.22;;
18290;SDS011;9271;48.590;8.866;2022-08-11T08:17:57;4.93;;;2.35;;
18290;SDS011;9271;48.590;8.866;2022-08-11T08:20:26;4.20;;;2.00;;
18290;SDS011;9271;48.590;8.866;2022-08-11T08:22:55;5.40;;;2.00;;
18290;SDS011;9271;48.590;8.866;2022-08-11T08:25:24;2.10;;;2.00;;
18290;SDS011;9271;48.590;8.866;2022-08-11T08:27:52;3.35;;;1.80;;
18290;SDS011;9271;48.590;8.866;2022-08-11T08:30:22;5.43;;;2.13;;
18290;SDS011;9271;48.590;8.866;2022-08-11T08:33:20;5.80;;;2.30;;
18290;SDS011;9271;48.590;8.866;2022-08-11T08:35:49;5.30;;;2.67;;
18290;SDS011;9271;48.590;8.866;2022-08-11T08:38:35;2.90;;;2.10;;
18290;SDS011;9271;48.590;8.866;2022-08-11T08:41:02;2.20;;;2.00;;
18290;SDS011;9271;48.590;8.866;2022-08-11T08:43:30;2.72;;;2.10;;
18290;SDS011;9271;48.590;8.866;2022-08-11T08:46:00;3.58;;;1.90;;
18290;SDS011;9271;48.590;8.866;2022-08-11T08:48:27;3.42;;;1.90;;
18290;SDS011;9271;48.590;8.866;2022-08-11T08:51:00;4.22;;;2.00;;
18290;SDS011;9271;48.590;8.866;2022-08-11T08:53:47;2.35;;;2.17;;
18290;SDS011;9271;48.590;8.866;2022-08-11T08:56:16;4.03;;;2.20;;
18290;SDS011;9271;48.590;8.866;2022-08-11T08:58:44;2.00;;;1.90;;
18290;SDS011;9271;48.590;8.866;2022-08-11T09:01:15;5.82;;;2.08;;
18290;SDS011;9271;48.590;8.866;2022-08-11T09:03:44;2.38;;;2.00;;
18290;SDS011;9271;48.590;8.866;2022-08-11T09:06:11;2.55;;;2.20;;
18290;SDS011;9271;48.590;8.866;2022-08-11T09:08:40;2.65;;;2.10;;
18290;SDS011;9271;48.590;8.866;2022-08-11T09:11:08;3.13;;;1.85;;
18290;SDS011;9271;48.590;8.866;2022-08-11T09:13:54;3.97;;;2.10;;
18290;SDS011;9271;48.590;8.866;2022-08-11T09:16:22;2.35;;;2.05;;
18290;SDS011;9271;48.590;8.866;2022-08-11T09:18:50;4.90;;;2.13;;
18290;SDS011;9271;48.590;8.866;2022-08-11T09:21:18;3.55;;;2.10;;
18290;SDS011;9271;48.590;8.866;2022-08-11T09:23:46;3.05;;;2.10;;
18290;SDS011;9271;48.590;8.866;2022-08-11T09:26:33;8.77;;;2.15;;
18290;SDS011;9271;48.590;8.866;2022-08-11T09:29:19;9.18;;;2.38;;
18290;SDS011;9271;48.590;8.866;2022-08-11T09:31:48;3.05;;;1.90;;
18290;SDS011;9271;48.590;8.866;2022-08-11T09:34:15;2.95;;;2.10;;
18290;SDS011;9271;48.590;8.866;2022-08-11T09:36:42;1.85;;;1.75;;
18290;SDS011;9271;48.590;8.866;2022-08-11T09:39:28;3.67;;;1.80;;
18290;SDS011;9271;48.590;8.866;2022-08-11T09:42:14;3.25;;;2.05;;
18290;SDS011;9271;48.590;8.866;2022-08-11T09:44:42;2.20;;;1.75;;
18290;SDS011;9271;48.590;8.866;2022-08-11T09:47:18;2.88;;;1.83;;
18290;SDS011;9271;48.590;8.866;2022-08-11T09:49:48;4.13;;;1.98;;
18290;SDS011;9271;48.590;8.866;2022-08-11T09:52:17;2.20;;;2.00;;
18290;SDS011;9271;48.590;8.866;2022-08-11T09:54:45;2.90;;;2.25;;
18290;SDS011;9271;48.590;8.866;2022-08-11T09:57:13;3.95;;;2.00;;
18290;SDS011;9271;48.590;8.866;2022-08-11T10:00:01;2.40;;;2.03;;
18290;SDS011;9271;48.590;8.866;2022-08-11T10:02:29;2.00;;;1.90;;
18290;SDS011;9271;48.590;8.866;2022-08-11T10:04:57;2.88;;;1.80;;
18290;SDS011;9271;48.590;8.866;2022-08-11T10:07:39;1.90;;;1.80;;
18290;SDS011;9271;48.590;8.866;2022-08-11T10:10:07;2.53;;;1.90;;
18290;SDS011;9271;48.590;8.866;2022-08-11T10:12:36;2.67;;;1.70;;
18290;SDS011;9271;48.590;8.866;2022-08-11T10:15:08;3.33;;;1.92;;
18290;SDS011;9271;48.590;8.866;2022-08-11T10:17:55;2.65;;;1.75;;
18290;SDS011;9271;48.590;8.866;2022-08-11T10:20:42;2.58;;;1.73;;
18290;SDS011;9271;48.590;8.866;2022-08-11T10:23:14;5.20;;;1.70;;
18290;SDS011;9271;48.590;8.866;2022-08-11T10:25:59;2.22;;;1.52;;
18290;SDS011;9271;48.590;8.866;2022-08-11T10:28:44;1.98;;;1.38;;
18290;SDS011;9271;48.590;8.866;2022-08-11T10:31:11;2.30;;;1.65;;
18290;SDS011;9271;48.590;8.866;2022-08-11T10:33:58;1.60;;;1.50;;
18290;SDS011;9271;48.590;8.866;2022-08-11T10:36:27;3.28;;;1.67;;
18290;SDS011;9271;48.590;8.866;2022-08-11T10:38:56;3.30;;;1.52;;
18290;SDS011;9271;48.590;8.866;2022-08-11T10:41:24;2.78;;;1.80;;
18290;SDS011;9271;48.590;8.866;2022-08-11T10:44:10;3.70;;;1.70;;
18290;SDS011;9271;48.590;8.866;2022-08-11T10:46:38;1.63;;;1.50;;
18290;SDS011;9271;48.590;8.866;2022-08-11T10:49:24;1.80;;;1.70;;
18290;SDS011;9271;48.590;8.866;2022-08-11T10:51:52;3.50;;;1.70;;
18290;SDS011;9271;48.590;8.866;2022-08-11T10:54:39;1.60;;;1.50;;
18290;SDS011;9271;48.590;8.866;2022-08-11T10:57:25;3.05;;;1.73;;
18290;SDS011;9271;48.590;8.866;2022-08-11T11:00:10;1.52;;;1.52;;
18290;SDS011;9271;48.590;8.866;2022-08-11T11:02:39;2.50;;;1.80;;
18290;SDS011;9271;48.590;8.866;2022-08-11T11:05:08;2.00;;;1.75;;
18290;SDS011;9271;48.590;8.866;2022-08-11T11:07:42;4.47;;;1.60;;
18290;SDS011;9271;48.590;8.866;2022-08-11T11:10:15;2.13;;;1.60;;
18290;SDS011;9271;48.590;8.866;2022-08-11T11:12:42;1.77;;;1.50;;
18290;SDS011;9271;48.590;8.866;2022-08-11T11:15:31;3.75;;;1.75;;
18290;SDS011;9271;48.590;8.866;2022-08-11T11:18:19;4.13;;;1.60;;
18290;SDS011;9271;48.590;8.866;2022-08-11T11:20:50;1.60;;;1.50;;
18290;SDS011;9271;48.590;8.866;2022-08-11T11:23:24;1.92;;;1.60;;
18290;SDS011;9271;48.590;8.866;2022-08-11T11:31:58;4.35;;;1.50;;
18290;SDS011;9271;48.590;8.866;2022-08-11T11:34:41;3.10;;;1.65;;
18290;SDS011;9271;48.590;8.866;2022-08-11T11:37:24;3.40;;;1.98;;
18290;SDS011;9271;48.590;8.866;2022-08-11T11:39:54;3.30;;;1.60;;
18290;SDS011;9271;48.590;8.866;2022-08-11T11:42:22;2.88;;;1.50;;
18290;SDS011;9271;48.590;8.866;2022-08-11T11:44:50;3.85;;;1.60;;
18290;SDS011;9271;48.590;8.866;2022-08-11T11:47:17;1.73;;;1.63;;
18290;SDS011;9271;48.590;8.866;2022-08-11T11:49:47;2.80;;;1.55;;
18290;SDS011;9271;48.590;8.866;2022-08-11T11:52:15;3.38;;;1.67;;
18290;SDS011;9271;48.590;8.866;2022-08-11T11:54:45;3.45;;;1.40;;
18290;SDS011;9271;48.590;8.866;2022-08-11T11:57:14;2.60;;;1.60;;
18290;SDS011;9271;48.590;8.866;2022-08-11T12:00:00;1.40;;;1.40;;
18290;SDS011;9271;48.590;8.866;2022-08-11T12:02:47;3.47;;;1.50;;
18290;SDS011;9271;48.590;8.866;2022-08-11T12:05:15;2.45;;;1.70;;
18290;SDS011;9271;48.590;8.866;2022-08-11T12:07:43;2.90;;;1.40;;
18290;SDS011;9271;48.590;8.866;2022-08-11T12:10:29;3.75;;;1.48;;
18290;SDS011;9271;48.590;8.866;2022-08-11T12:12:58;1.70;;;1.60;;
18290;SDS011;9271;48.590;8.866;2022-08-11T12:15:44;1.60;;;1.50;;
18290;SDS011;9271;48.590;8.866;2022-08-11T12:18:11;1.70;;;1.30;;
18290;SDS011;9271;48.590;8.866;2022-08-11T12:20:38;1.70;;;1.38;;
18290;SDS011;9271;48.590;8.866;2022-08-11T12:23:05;3.13;;;1.40;;
18290;SDS011;9271;48.590;8.866;2022-08-11T12:25:51;2.67;;;1.73;;
18290;SDS011;9271;48.590;8.866;2022-08-11T12:28:36;1.55;;;1.30;;
18290;SDS011;9271;48.590;8.866;2022-08-11T12:31:04;2.13;;;1.60;;
18290;SDS011;9271;48.590;8.866;2022-08-11T12:33:33;1.45;;;1.35;;
18290;SDS011;9271;48.590;8.866;2022-08-11T12:36:00;5.43;;;1.52;;
18290;SDS011;9271;48.590;8.866;2022-08-11T12:38:28;2.80;;;1.50;;
18290;SDS011;9271;48.590;8.866;2022-08-11T12:40:57;1.80;;;1.60;;
18290;SDS011;9271;48.590;8.866;2022-08-11T12:43:42;1.55;;;1.55;;
18290;SDS011;9271;48.590;8.866;2022-08-11T12:46:30;4.45;;;1.60;;
18290;SDS011;9271;48.590;8.866;2022-08-11T12:48:59;1.50;;;1.40;;
18290;SDS011;9271;48.590;8.866;2022-08-11T12:51:51;3.63;;;1.80;;
18290;SDS011;9271;48.590;8.866;2022-08-11T12:54:26;1.35;;;1.30;;
18290;SDS011;9271;48.590;8.866;2022-08-11T12:56:59;2.22;;;1.70;;
18290;SDS011;9271;48.590;8.866;2022-08-11T12:59:46;3.65;;;1.50;;
18290;SDS011;9271;48.590;8.866;2022-08-11T13:02:31;1.92;;;1.70;;
18290;SDS011;9271;48.590;8.866;2022-08-11T13:05:16;1.60;;;1.50;;
18290;SDS011;9271;48.590;8.866;2022-08-11T13:07:44;1.50;;;1.40;;
18290;SDS011;9271;48.590;8.866;2022-08-11T13:10:13;1.70;;;1.60;;
18290;SDS011;9271;48.590;8.866;2022-08-11T13:13:04;3.03;;;1.42;;
18290;SDS011;9271;48.590;8.866;2022-08-11T13:15:32;1.55;;;1.40;;
18290;SDS011;9271;48.590;8.866;2022-08-11T13:18:01;1.40;;;1.30;;
18290;SDS011;9271;48.590;8.866;2022-08-11T13:20:32;1.80;;;1.40;;
18290;SDS011;9271;48.590;8.866;2022-08-11T13:22:59;1.85;;;1.52;;
18290;SDS011;9271;48.590;8.866;2022-08-11T13:25:27;3.00;;;1.40;;
18290;SDS011;9271;48.590;8.866;2022-08-11T13:27:57;3.95;;;1.52;;
18290;SDS011;9271;48.590;8.866;2022-08-11T13:30:27;1.50;;;1.40;;
18290;SDS011;9271;48.590;8.866;2022-08-11T13:33:13;2.08;;;1.40;;
18290;SDS011;9271;48.590;8.866;2022-08-11T13:35:42;1.83;;;1.20;;
18290;SDS011;9271;48.590;8.866;2022-08-11T13:38:10;3.20;;;1.50;;
18290;SDS011;9271;48.590;8.866;2022-08-11T13:40:38;1.90;;;1.30;;
18290;SDS011;9271;48.590;8.866;2022-08-11T13:43:06;3.63;;;1.40;;
18290;SDS011;9271;48.590;8.866;2022-08-11T13:45:35;3.95;;;1.60;;
18290;SDS011;9271;48.590;8.866;2022-08-11T13:48:05;3.10;;;1.55;;
18290;SDS011;9271;48.590;8.866;2022-08-11T13:50:34;1.77;;;1.48;;
18290;SDS011;9271;48.590;8.866;2022-08-11T13:53:20;1.65;;;1.55;;
18290;SDS011;9271;48.590;8.866;2022-08-11T13:55:49;2.63;;;1.60;;
18290;SDS011;9271;48.590;8.866;2022-08-11T13:58:16;2.08;;;1.50;;
18290;SDS011;9271;48.590;8.866;2022-08-11T14:00:47;4.30;;;1.60;;
18290;SDS011;9271;48.590;8.866;2022-08-11T14:03:16;1.85;;;1.63;;
18290;SDS011;9271;48.590;8.866;2022-08-11T14:05:48;2.00;;;1.52;;
18290;SDS011;9271;48.590;8.866;2022-08-11T14:08:18;1.67;;;1.25;;
18290;SDS011;9271;48.590;8.866;2022-08-11T14:10:49;1.85;;;1.42;;
18290;SDS011;9271;48.590;8.866;2022-08-11T14:13:37;1.38;;;1.27;;
18290;SDS011;9271;48.590;8.866;2022-08-11T14:16:08;3.00;;;1.60;;
18290;SDS011;9271;48.590;8.866;2022-08-11T14:18:38;1.50;;;1.40;;
18290;SDS011;9271;48.590;8.866;2022-08-11T14:21:10;3.30;;;1.73;;
18290;SDS011;9271;48.590;8.866;2022-08-11T14:23:57;2.50;;;1.52;;
18290;SDS011;9271;48.590;8.866;2022-08-11T14:26:25;2.60;;;1.70;;
18290;SDS011;9271;48.590;8.866;2022-08-11T14:28:53;1.60;;;1.50;;
18290;SDS011;9271;48.590;8.866;2022-08-11T14:31:24;1.83;;;1.50;;
18290;SDS011;9271;48.590;8.866;2022-08-11T14:33:52;1.65;;;1.58;;
18290;SDS011;9271;48.590;8.866;2022-08-11T14:36:21;1.35;;;1.35;;
18290;SDS011;9271;48.590;8.866;2022-08-11T14:38:50;1.80;;;1.70;;
18290;SDS011;9271;48.590;8.866;2022-08-11T14:41:18;4.05;;;1.70;;
18290;SDS011;9271;48.590;8.866;2022-08-11T14:44:04;3.47;;;1.60;;
18290;SDS011;9271;48.590;8.866;2022-08-11T14:46:52;3.22;;;1.60;;
18290;SDS011;9271;48.590;8.866;2022-08-11T14:49:33;3.92;;;1.58;;
18290;SDS011;9271;48.590;8.866;2022-08-11T14:52:02;3.75;;;1.50;;
18290;SDS011;9271;48.590;8.866;2022-08-11T14:54:32;2.05;;;1.50;;
18290;SDS011;9271;48.590;8.866;2022-08-11T14:57:17;3.90;;;1.58;;
18290;SDS011;9271;48.590;8.866;2022-08-11T14:59:46;2.33;;;1.65;;
18290;SDS011;9271;48.590;8.866;2022-08-11T15:02:16;4.28;;;1.60;;
18290;SDS011;9271;48.590;8.866;2022-08-11T15:05:02;3.70;;;1.73;;
18290;SDS011;9271;48.590;8.866;2022-08-11T15:07:30;2.22;;;1.63;;
18290;SDS011;9271;48.590;8.866;2022-08-11T15:09:58;2.17;;;1.67;;
18290;SDS011;9271;48.590;8.866;2022-08-11T15:12:28;4.03;;;1.70;;
18290;SDS011;9271;48.590;8.866;2022-08-11T15:14:56;1.65;;;1.40;;
18290;SDS011;9271;48.590;8.866;2022-08-11T15:17:42;1.70;;;1.60;;
18290;SDS011;9271;48.590;8.866;2022-08-11T15:20:13;2.38;;;1.60;;
18290;SDS011;9271;48.590;8.866;2022-08-11T15:23:00;3.50;;;1.70;;
18290;SDS011;9271;48.590;8.866;2022-08-11T15:25:45;3.85;;;1.70;;
18290;SDS011;9271;48.590;8.866;2022-08-11T15:28:16;2.10;;;1.70;;
18290;SDS011;9271;48.590;8.866;2022-08-11T15:31:02;2.85;;;1.77;;
18290;SDS011;9271;48.590;8.866;2022-08-11T15:34:04;6.30;;;1.92;;
18290;SDS011;9271;48.590;8.866;2022-08-11T15:36:50;3.15;;;2.00;;
18290;SDS011;9271;48.590;8.866;2022-08-11T15:39:41;3.85;;;2.00;;
18290;SDS011;9271;48.590;8.866;2022-08-11T15:42:26;2.78;;;1.70;;
18290;SDS011;9271;48.590;8.866;2022-08-11T15:45:13;3.83;;;1.80;;
18290;SDS011;9271;48.590;8.866;2022-08-11T15:48:02;2.78;;;1.75;;
18290;SDS011;9271;48.590;8.866;2022-08-11T15:50:45;1.63;;;1.52;;
18290;SDS011;9271;48.590;8.866;2022-08-11T15:53:17;5.15;;;1.90;;
18290;SDS011;9271;48.590;8.866;2022-08-11T15:55:49;2.50;;;1.80;;
18290;SDS011;9271;48.590;8.866;2022-08-11T15:58:17;5.18;;;1.83;;
18290;SDS011;9271;48.590;8.866;2022-08-11T16:01:02;2.35;;;1.75;;
18290;SDS011;9271;48.590;8.866;2022-08-11T16:03:51;2.15;;;1.55;;
18290;SDS011;9271;48.590;8.866;2022-08-11T16:06:41;1.77;;;1.67;;
18290;SDS011;9271;48.590;8.866;2022-08-11T16:09:10;3.03;;;1.90;;
18290;SDS011;9271;48.590;8.866;2022-08-11T16:11:40;3.38;;;1.67;;
18290;SDS011;9271;48.590;8.866;2022-08-11T16:14:08;5.88;;;1.95;;
18290;SDS011;9271;48.590;8.866;2022-08-11T16:16:54;2.08;;;1.90;;
18290;SDS011;9271;48.590;8.866;2022-08-11T16:19:23;3.00;;;1.70;;
18290;SDS011;9271;48.590;8.866;2022-08-11T16:21:54;3.83;;;1.70;;
18290;SDS011;9271;48.590;8.866;2022-08-11T16:24:21;2.88;;;1.80;;
18290;SDS011;9271;48.590;8.866;2022-08-11T16:26:49;1.80;;;1.70;;
18290;SDS011;9271;48.590;8.866;2022-08-11T16:29:19;2.65;;;1.60;;
18290;SDS011;9271;48.590;8.866;2022-08-11T16:31:49;2.05;;;1.85;;
18290;SDS011;9271;48.590;8.866;2022-08-11T16:34:32;2.92;;;1.70;;
18290;SDS011;9271;48.590;8.866;2022-08-11T16:37:15;2.45;;;1.95;;
18290;SDS011;9271;48.590;8.866;2022-08-11T16:40:01;2.27;;;1.70;;
18290;SDS011;9271;48.590;8.866;2022-08-11T16:42:28;2.87;;;1.77;;
18290;SDS011;9271;48.590;8.866;2022-08-11T16:45:13;1.90;;;1.80;;
18290;SDS011;9271;48.590;8.866;2022-08-11T16:47:57;3.87;;;2.23;;
18290;SDS011;9271;48.590;8.866;2022-08-11T16:50:26;3.13;;;2.10;;
18290;SDS011;9271;48.590;8.866;2022-08-11T16:52:55;3.03;;;1.90;;
18290;SDS011;9271;48.590;8.866;2022-08-11T16:55:22;3.43;;;2.00;;